Hovedside
METAR-TAF:

METAR-TAF

Lufthavner :

Jämsä, Finland

Halli lufthavn

breddegrad: 61-51N, lengdegrad: 024-48E, høyde over havet: 143 m

Gjeldene værobservasjon

Denne rapporten ble laget for 34 minutter siden, klokken 06:50 UTC
Vind 11 kt fra Vest-nordvest
Temperatur 6°C
Luftfuktighet 93%
Trykk 997 hPa
Sikt 10 km eller mer
Spredte skyer i en høyde av 600 ft
Brutte skyer i en høyde av 4600 ft
lette regnbyger

METAR: EFHA 210650Z AUTO 30011KT 9999 -SHRA SCT006 BKN046 06/05 Q0997

Tid: 10:24 (07:24 UTC)

Varsel

Denne rapporten ble laget for 19 timer og 47 minutter siden, klokken 11:37 UTC
Varsel gyldig fra 20. klokken 12 UTC til 20. klokken 14 UTC
Vind 9 kt fra Vest
Sikt 10 km eller mer
ingen skyer under 1500 m og ingen bygeskyer

TAF: EFHA 201137Z 2012/2014 26009KT CAVOK

Værobservasjoner og værvarsel for over 4000 flyplasser (METAR- og TAF-rapporter).

Tilgjengelige stasjoner er representert av de røde og gule prikkene på kartet.

Hold musepekeren over prikken for å se navnet på stasjonen.

Klikk så for å se værobservasjoner og -varsler.

For å forandre kartet kan du klikke på den grønne knappen med svart kryss for å zoome inn, på den grønne knappen med strek for å zoome ut, eller på de grønne pilene for å se tilstøtende kart.


METAR-TAF: